createdAt,value
2019-04-29T00:02:22.877Z,3.70
2019-04-29T00:04:52.958Z,3.72
2019-04-29T00:07:23.127Z,3.10
2019-04-29T00:09:53.050Z,3.60
2019-04-29T00:12:23.506Z,3.80
2019-04-29T00:15:07.101Z,4.08
2019-04-29T00:17:52.670Z,3.62
2019-04-29T00:20:30.805Z,3.92
2019-04-29T00:23:01.779Z,3.70
2019-04-29T00:25:32.178Z,4.20
2019-04-29T00:28:02.458Z,4.12
2019-04-29T00:30:32.395Z,3.98
2019-04-29T00:33:02.932Z,3.90
2019-04-29T00:35:33.162Z,4.47
2019-04-29T00:38:21.998Z,4.03
2019-04-29T00:41:11.465Z,4.58
2019-04-29T00:43:51.828Z,4.45
2019-04-29T00:46:22.220Z,4.35
2019-04-29T00:48:52.393Z,4.65
2019-04-29T00:51:23.964Z,5.50
2019-04-29T00:53:57.904Z,5.28
2019-04-29T00:56:28.074Z,4.95
2019-04-29T00:58:57.826Z,4.25
2019-04-29T01:01:27.928Z,5.00
2019-04-29T01:04:03.543Z,4.70
2019-04-29T01:06:39.208Z,4.87
2019-04-29T01:09:16.510Z,4.95
2019-04-29T01:11:52.264Z,4.80
2019-04-29T01:14:30.338Z,4.62
2019-04-29T01:17:07.853Z,4.60
2019-04-29T01:19:42.854Z,5.08
2019-04-29T01:22:19.110Z,4.70
2019-04-29T01:24:54.156Z,4.85
2019-04-29T01:27:34.473Z,4.35
2019-04-29T01:30:09.512Z,4.92
2019-04-29T01:32:50.878Z,4.62
2019-04-29T01:35:26.832Z,5.00
2019-04-29T01:38:03.410Z,5.07
2019-04-29T01:41:03.662Z,4.17
2019-04-29T01:44:09.523Z,4.75
2019-04-29T01:46:46.421Z,5.62
2019-04-29T01:49:20.579Z,5.08
2019-04-29T01:51:58.170Z,4.83
2019-04-29T01:54:33.799Z,5.20
2019-04-29T01:57:12.884Z,5.20
2019-04-29T01:59:52.323Z,4.83
2019-04-29T02:02:25.098Z,4.83
2019-04-29T02:04:57.808Z,5.10
2019-04-29T02:07:31.302Z,4.80
2019-04-29T02:10:13.041Z,5.33
2019-04-29T02:12:45.789Z,4.97
2019-04-29T02:15:18.787Z,4.87
2019-04-29T02:17:50.862Z,4.92
2019-04-29T02:20:23.256Z,4.90
2019-04-29T02:23:12.470Z,4.47
2019-04-29T02:25:46.797Z,4.10
2019-04-29T02:28:19.867Z,4.70
2019-04-29T02:30:52.719Z,5.40
2019-04-29T02:33:25.396Z,5.70
2019-04-29T02:35:59.278Z,4.70
2019-04-29T02:38:40.605Z,5.10
2019-04-29T02:41:30.981Z,4.50
2019-04-29T02:44:05.009Z,5.30
2019-04-29T02:46:37.871Z,4.62
2019-04-29T02:49:10.230Z,5.33
2019-04-29T02:51:50.499Z,5.03
2019-04-29T02:54:24.037Z,4.95
2019-04-29T02:57:06.424Z,5.22
2019-04-29T02:59:43.257Z,5.67
2019-04-29T03:02:34.943Z,4.78
2019-04-29T03:05:19.253Z,4.47
2019-04-29T03:07:52.163Z,4.97
2019-04-29T03:10:25.330Z,4.87
2019-04-29T03:12:58.336Z,5.17
2019-04-29T03:15:35.677Z,4.72
2019-04-29T03:18:06.030Z,5.05
2019-04-29T03:21:10.701Z,5.00
2019-04-29T03:23:40.888Z,5.58
2019-04-29T03:26:11.119Z,5.30
2019-04-29T03:28:41.239Z,5.28
2019-04-29T03:31:11.360Z,4.53
2019-04-29T03:33:41.245Z,5.12
2019-04-29T03:36:11.368Z,5.42
2019-04-29T03:38:41.256Z,5.50
2019-04-29T03:41:11.573Z,5.30
2019-04-29T03:43:41.750Z,4.90
2019-04-29T03:46:12.102Z,6.30
2019-04-29T03:48:41.897Z,5.35
2019-04-29T03:51:12.091Z,5.95
2019-04-29T03:53:42.069Z,5.80
2019-04-29T03:56:11.902Z,5.20
2019-04-29T03:58:41.873Z,6.35
2019-04-29T04:01:24.535Z,5.85
2019-04-29T04:04:02.151Z,6.03
2019-04-29T04:06:49.571Z,6.30
2019-04-29T04:09:31.416Z,6.05
2019-04-29T04:12:01.228Z,6.12
2019-04-29T04:14:31.091Z,5.45
2019-04-29T04:17:11.405Z,5.75
2019-04-29T04:19:41.916Z,5.25
2019-04-29T04:22:11.785Z,5.45
2019-04-29T04:24:41.633Z,5.58
2019-04-29T04:27:11.501Z,4.83
2019-04-29T04:29:41.650Z,5.33
2019-04-29T04:32:12.069Z,5.45
2019-04-29T04:34:42.287Z,5.55
2019-04-29T04:37:12.527Z,5.12
2019-04-29T04:39:44.019Z,4.83
2019-04-29T04:42:14.286Z,5.62
2019-04-29T04:44:50.354Z,5.08
2019-04-29T04:47:21.119Z,4.28
2019-04-29T04:49:51.547Z,4.90
2019-04-29T04:52:21.507Z,5.75
2019-04-29T04:54:53.172Z,4.75
2019-04-29T04:57:23.017Z,5.53
2019-04-29T04:59:52.829Z,4.85
2019-04-29T05:02:24.995Z,5.03
2019-04-29T05:04:55.534Z,4.53
2019-04-29T05:07:25.400Z,4.90
2019-04-29T05:09:55.369Z,4.90
2019-04-29T05:12:25.366Z,4.67
2019-04-29T05:14:55.890Z,4.97
2019-04-29T05:17:28.160Z,4.67
2019-04-29T05:19:58.044Z,4.92
2019-04-29T05:22:28.433Z,4.90
2019-04-29T05:24:58.642Z,5.80
2019-04-29T05:27:29.005Z,4.85
2019-04-29T05:29:58.970Z,4.95
2019-04-29T05:32:29.219Z,4.87
2019-04-29T05:35:01.767Z,5.03
2019-04-29T05:37:41.377Z,5.47
2019-04-29T05:40:14.484Z,5.15
2019-04-29T05:42:48.289Z,5.22
2019-04-29T05:45:25.414Z,6.15
2019-04-29T05:48:06.172Z,5.50
2019-04-29T05:50:43.448Z,5.15
2019-04-29T05:53:24.655Z,6.03
2019-04-29T05:55:54.490Z,5.67
2019-04-29T05:58:24.502Z,4.95
2019-04-29T06:01:13.825Z,5.22
2019-04-29T06:03:45.746Z,6.03
2019-04-29T06:06:15.814Z,5.58
2019-04-29T06:08:46.040Z,5.37
2019-04-29T06:11:15.912Z,5.20
2019-04-29T06:13:46.162Z,5.87
2019-04-29T06:16:20.853Z,5.60
2019-04-29T06:18:47.630Z,5.17
2019-04-29T06:21:17.587Z,4.87
2019-04-29T06:23:47.756Z,5.75
2019-04-29T06:26:17.607Z,5.92
2019-04-29T06:28:48.015Z,5.80
2019-04-29T06:31:17.979Z,5.40
2019-04-29T06:33:48.185Z,5.87
2019-04-29T06:36:18.022Z,6.28
2019-04-29T06:38:49.572Z,5.55
2019-04-29T06:41:19.464Z,5.05
2019-04-29T06:43:52.401Z,5.80
2019-04-29T06:46:21.425Z,5.47
2019-04-29T06:48:52.737Z,5.33
2019-04-29T06:51:22.710Z,5.17
2019-04-29T06:53:53.326Z,5.67
2019-04-29T06:56:23.387Z,5.17
2019-04-29T06:58:53.429Z,5.65
2019-04-29T07:01:23.273Z,7.50
2019-04-29T07:03:55.829Z,6.97
2019-04-29T07:06:25.079Z,5.75
2019-04-29T07:08:54.835Z,6.25
2019-04-29T07:11:25.499Z,6.22
2019-04-29T07:13:57.563Z,6.00
2019-04-29T07:16:31.781Z,6.35
2019-04-29T07:18:59.108Z,5.80
2019-04-29T07:21:33.239Z,5.25
2019-04-29T07:24:03.595Z,6.10
2019-04-29T07:26:33.451Z,5.60
2019-04-29T07:29:03.807Z,5.35
2019-04-29T07:31:35.270Z,5.17
2019-04-29T07:34:08.314Z,5.83
2019-04-29T07:36:37.792Z,6.40
2019-04-29T07:39:08.661Z,5.55
2019-04-29T07:41:41.952Z,5.33
2019-04-29T07:44:13.837Z,6.67
2019-04-29T07:46:56.880Z,6.10
2019-04-29T07:49:23.847Z,6.47
2019-04-29T07:51:53.779Z,6.65
2019-04-29T07:54:23.931Z,5.53
2019-04-29T07:56:54.445Z,5.42
2019-04-29T07:59:24.669Z,6.83
2019-04-29T08:01:55.585Z,6.15
2019-04-29T08:04:27.064Z,6.08
2019-04-29T08:06:56.955Z,5.58
2019-04-29T08:09:26.752Z,5.83
2019-04-29T08:11:56.978Z,5.72
2019-04-29T08:14:27.377Z,6.10
2019-04-29T08:16:57.785Z,5.97
2019-04-29T08:19:29.592Z,5.08
2019-04-29T08:21:59.295Z,6.00
2019-04-29T08:24:29.150Z,5.65
2019-04-29T08:26:59.791Z,7.17
2019-04-29T08:29:30.790Z,7.25
2019-04-29T08:32:02.485Z,6.40
2019-04-29T08:34:32.872Z,6.95
2019-04-29T08:37:02.613Z,6.05
2019-04-29T08:39:32.404Z,7.53
2019-04-29T08:42:08.855Z,6.37
2019-04-29T08:44:54.649Z,7.58
2019-04-29T08:47:31.615Z,7.05
2019-04-29T08:50:00.469Z,7.37
2019-04-29T08:52:30.747Z,8.00
2019-04-29T08:55:00.692Z,8.00
2019-04-29T08:57:31.713Z,7.85
2019-04-29T09:00:02.987Z,7.25
2019-04-29T09:02:35.434Z,7.55
2019-04-29T09:05:06.859Z,7.40
2019-04-29T09:07:39.602Z,7.28
2019-04-29T09:10:09.429Z,7.08
2019-04-29T09:12:39.227Z,7.60
2019-04-29T09:15:12.145Z,7.33
2019-04-29T09:17:42.074Z,7.90
2019-04-29T09:20:12.867Z,6.60
2019-04-29T09:22:47.443Z,7.58
2019-04-29T09:25:28.510Z,6.17
2019-04-29T09:27:59.974Z,5.10
2019-04-29T09:30:30.342Z,6.85
2019-04-29T09:33:00.203Z,6.08
2019-04-29T09:35:33.793Z,5.78
2019-04-29T09:38:01.843Z,6.35
2019-04-29T09:40:34.222Z,6.87
2019-04-29T09:43:25.866Z,6.72
2019-04-29T09:46:18.650Z,6.22
2019-04-29T09:48:49.127Z,6.45
2019-04-29T09:51:22.881Z,5.58
2019-04-29T09:53:50.843Z,5.42
2019-04-29T09:56:21.014Z,5.42
2019-04-29T09:58:53.847Z,5.78
2019-04-29T10:01:41.650Z,4.65
2019-04-29T10:04:28.932Z,5.37
2019-04-29T10:06:59.256Z,4.80
2019-04-29T10:09:30.217Z,5.33
2019-04-29T10:12:00.328Z,5.20
2019-04-29T10:14:30.294Z,6.25
2019-04-29T10:17:16.705Z,4.67
2019-04-29T10:20:09.658Z,4.80
2019-04-29T10:22:39.719Z,4.37
2019-04-29T10:25:10.062Z,4.80
2019-04-29T10:27:40.975Z,4.35
2019-04-29T10:30:10.759Z,4.25
2019-04-29T10:32:42.387Z,5.22
2019-04-29T10:35:13.706Z,5.20
2019-04-29T10:37:43.723Z,5.03
2019-04-29T10:40:24.447Z,4.80
2019-04-29T10:43:17.218Z,3.83
2019-04-29T10:46:08.451Z,4.90
2019-04-29T10:48:44.522Z,4.35
2019-04-29T10:51:16.379Z,4.53
2019-04-29T10:53:46.593Z,3.80
2019-04-29T10:56:18.317Z,3.65
2019-04-29T10:58:48.465Z,4.10
2019-04-29T11:02:19.194Z,3.70
2019-04-29T11:04:52.228Z,4.60
2019-04-29T11:07:30.709Z,4.78
2019-04-29T11:10:09.051Z,6.08
2019-04-29T11:12:40.170Z,5.37
2019-04-29T11:15:14.058Z,6.15
2019-04-29T11:17:44.674Z,6.05
2019-04-29T11:20:15.799Z,5.92
2019-04-29T11:22:51.513Z,5.70
2019-04-29T11:25:51.159Z,6.90
2019-04-29T11:28:18.777Z,6.37
2019-04-29T11:30:49.847Z,6.15
2019-04-29T11:33:40.212Z,5.53
2019-04-29T11:36:13.397Z,5.33
2019-04-29T11:38:44.759Z,5.80
2019-04-29T11:41:19.879Z,7.08
2019-04-29T11:43:50.873Z,7.30
2019-04-29T11:46:21.065Z,7.85
2019-04-29T11:48:52.414Z,7.08
2019-04-29T11:51:41.360Z,6.55
2019-04-29T11:54:08.357Z,7.08
2019-04-29T11:56:39.727Z,6.47
2019-04-29T11:59:42.320Z,8.00
2019-04-29T12:02:44.576Z,6.65
2019-04-29T12:05:23.163Z,7.90
2019-04-29T12:07:53.459Z,7.20
2019-04-29T12:10:24.901Z,7.15
2019-04-29T12:12:54.999Z,7.22
2019-04-29T12:15:38.633Z,7.08
2019-04-29T12:18:27.487Z,6.28
2019-04-29T12:21:12.979Z,7.12
2019-04-29T12:23:47.657Z,8.38
2019-04-29T12:26:18.131Z,8.10
2019-04-29T12:28:48.112Z,9.43
2019-04-29T12:31:40.667Z,9.08
2019-04-29T12:34:35.403Z,6.97
2019-04-29T12:37:11.481Z,6.70
2019-04-29T12:40:16.036Z,5.80
2019-04-29T12:43:04.748Z,5.92
2019-04-29T12:45:45.225Z,6.00
2019-04-29T12:48:24.566Z,6.00
2019-04-29T12:50:47.606Z,6.17
2019-04-29T12:53:17.926Z,6.60
2019-04-29T12:55:53.390Z,5.87
2019-04-29T12:58:24.344Z,6.72
2019-04-29T13:00:59.917Z,7.12
2019-04-29T13:03:42.337Z,7.92
2019-04-29T13:06:23.966Z,7.62
2019-04-29T13:08:57.348Z,9.28
2019-04-29T13:11:37.418Z,9.55
2019-04-29T13:14:01.912Z,9.53
2019-04-29T13:16:59.175Z,7.92
2019-04-29T13:19:38.169Z,9.25
2019-04-29T13:22:10.594Z,8.93
2019-04-29T13:24:42.675Z,8.33
2019-04-29T13:27:16.388Z,8.50
2019-04-29T13:29:43.474Z,8.18
2019-04-29T13:32:13.616Z,9.43
2019-04-29T13:34:45.742Z,10.23
2019-04-29T13:37:19.050Z,10.32
2019-04-29T13:39:47.709Z,9.85
2019-04-29T13:42:17.659Z,10.98
2019-04-29T13:45:05.172Z,11.43
2019-04-29T13:47:50.226Z,10.45
2019-04-29T13:50:38.260Z,11.25
2019-04-29T13:52:54.614Z,11.35
2019-04-29T13:55:47.237Z,11.78
2019-04-29T13:57:59.626Z,11.33
2019-04-29T14:00:38.876Z,12.98
2019-04-29T14:03:14.572Z,12.82
2019-04-29T14:05:45.362Z,11.85
2019-04-29T14:08:15.283Z,12.60
2019-04-29T14:10:46.814Z,11.30
2019-04-29T14:13:20.828Z,12.88
2019-04-29T14:15:49.120Z,12.43
2019-04-29T14:18:19.256Z,12.78
2019-04-29T14:20:51.770Z,12.45
2019-04-29T14:23:20.690Z,10.93
2019-04-29T14:25:50.626Z,12.05
2019-04-29T14:28:36.374Z,10.20
2019-04-29T14:31:18.558Z,12.03
2019-04-29T14:34:05.004Z,11.33
2019-04-29T14:36:37.841Z,10.82
2019-04-29T14:39:18.943Z,10.88
2019-04-29T14:41:58.397Z,11.35
2019-04-29T14:44:52.666Z,10.58
2019-04-29T14:47:48.934Z,11.63
2019-04-29T14:50:38.172Z,10.95
2019-04-29T14:53:12.247Z,11.25
2019-04-29T14:55:45.916Z,12.75
2019-04-29T14:58:18.199Z,13.15
2019-04-29T15:01:16.501Z,13.83
2019-04-29T15:04:17.971Z,12.33
2019-04-29T15:06:52.932Z,10.48
2019-04-29T15:09:45.879Z,11.15
2019-04-29T15:12:24.176Z,10.95
2019-04-29T15:15:18.988Z,11.15
2019-04-29T15:18:00.982Z,12.05
2019-04-29T15:20:56.289Z,11.85
2019-04-29T15:23:28.794Z,12.25
2019-04-29T15:26:08.202Z,11.95
2019-04-29T15:28:54.597Z,12.28
2019-04-29T15:31:25.614Z,12.23
2019-04-29T15:33:57.588Z,11.38
2019-04-29T15:36:34.868Z,12.85
2019-04-29T15:39:13.039Z,12.73
2019-04-29T15:41:50.413Z,12.65
2019-04-29T15:44:23.003Z,13.48
2019-04-29T15:46:59.272Z,13.43
2019-04-29T15:49:38.260Z,14.30
2019-04-29T15:52:21.133Z,12.28
2019-04-29T15:54:58.755Z,11.10
2019-04-29T15:57:32.631Z,11.83
2019-04-29T16:00:21.200Z,10.50
2019-04-29T16:02:50.183Z,12.33
2019-04-29T16:05:54.045Z,10.95
2019-04-29T16:08:29.570Z,11.55
2019-04-29T16:11:20.129Z,11.48
2019-04-29T16:14:08.367Z,13.68
2019-04-29T16:16:23.552Z,13.08
2019-04-29T16:18:53.762Z,11.60
2019-04-29T16:21:23.756Z,11.80
2019-04-29T16:23:57.571Z,12.28
2019-04-29T16:26:30.142Z,11.38
2019-04-29T16:28:57.898Z,11.38
2019-04-29T16:31:27.755Z,12.20
2019-04-29T16:33:58.042Z,11.93
2019-04-29T16:36:28.215Z,11.43
2019-04-29T16:38:58.516Z,11.28
2019-04-29T16:42:02.838Z,11.57
2019-04-29T16:44:36.243Z,11.53
2019-04-29T16:47:07.371Z,10.98
2019-04-29T16:49:38.835Z,12.05
2019-04-29T16:52:08.850Z,11.35
2019-04-29T16:54:39.084Z,12.82
2019-04-29T16:57:09.395Z,11.53
2019-04-29T16:59:39.383Z,10.95
2019-04-29T17:02:09.721Z,12.43
2019-04-29T17:04:40.241Z,13.20
2019-04-29T17:07:29.381Z,11.88
2019-04-29T17:10:18.594Z,12.37
2019-04-29T17:12:52.347Z,13.22
2019-04-29T17:15:25.386Z,11.90
2019-04-29T17:17:55.601Z,11.80
2019-04-29T17:20:30.222Z,10.72
2019-04-29T17:23:00.452Z,11.60
2019-04-29T17:25:30.241Z,11.12
2019-04-29T17:28:24.259Z,11.53
2019-04-29T17:31:11.657Z,10.48
2019-04-29T17:33:49.864Z,11.93
2019-04-29T17:36:23.615Z,12.33
2019-04-29T17:38:50.755Z,11.85
2019-04-29T17:41:20.956Z,11.18
2019-04-29T17:44:09.121Z,11.97
2019-04-29T17:47:11.486Z,11.97
2019-04-29T17:49:48.221Z,12.75
2019-04-29T17:52:25.968Z,10.78
2019-04-29T17:57:37.926Z,11.93
2019-04-29T18:03:15.278Z,10.63
2019-04-29T18:05:55.293Z,11.95
2019-04-29T18:08:41.611Z,12.58
2019-04-29T18:11:11.668Z,11.20
2019-04-29T18:13:41.721Z,11.20
2019-04-29T18:16:19.131Z,13.20
2019-04-29T18:19:05.541Z,12.25
2019-04-29T18:21:54.065Z,11.90
2019-04-29T18:24:34.123Z,12.23
2019-04-29T18:27:07.839Z,12.63
2019-04-29T18:29:41.509Z,13.28
2019-04-29T18:32:09.436Z,10.72
2019-04-29T18:34:39.807Z,12.07
2019-04-29T18:37:09.816Z,13.18
2019-04-29T18:39:40.089Z,11.68
2019-04-29T18:42:12.229Z,13.78
2019-04-29T18:44:56.538Z,14.15
2019-04-29T18:47:22.603Z,15.63
2019-04-29T18:49:47.326Z,16.55
2019-04-29T18:52:25.338Z,14.87
2019-04-29T18:54:49.283Z,17.77
2019-04-29T18:57:27.666Z,16.20
2019-04-29T18:59:52.409Z,15.80
2019-04-29T19:02:22.319Z,13.40
2019-04-29T19:04:58.172Z,12.73
2019-04-29T19:07:31.833Z,13.22
2019-04-29T19:10:01.415Z,14.47
2019-04-29T19:12:32.717Z,13.40
2019-04-29T19:15:10.010Z,14.20
2019-04-29T19:17:39.701Z,15.35
2019-04-29T19:20:08.615Z,13.83
2019-04-29T19:22:39.941Z,13.98
2019-04-29T19:25:11.818Z,15.30
2019-04-29T19:27:42.010Z,14.18
2019-04-29T19:30:16.231Z,14.43
2019-04-29T19:32:46.638Z,16.45
2019-04-29T19:35:16.984Z,15.30
2019-04-29T19:37:47.172Z,16.48
2019-04-29T19:40:19.673Z,16.75
2019-04-29T19:42:49.606Z,18.37
2019-04-29T19:45:19.860Z,17.25
2019-04-29T19:47:53.151Z,18.62
2019-04-29T19:50:21.532Z,19.52
2019-04-29T19:52:55.431Z,16.10
2019-04-29T19:55:25.252Z,17.37
2019-04-29T19:57:56.371Z,19.40
2019-04-29T20:00:29.473Z,20.32
2019-04-29T20:02:59.172Z,21.90
2019-04-29T20:05:42.192Z,19.67
2019-04-29T20:08:21.596Z,19.65
2019-04-29T20:10:51.042Z,21.68
2019-04-29T20:13:18.257Z,22.30
2019-04-29T20:16:12.384Z,20.32
2019-04-29T20:19:02.500Z,19.45
2019-04-29T20:21:36.199Z,24.25
2019-04-29T20:24:09.630Z,22.07
2019-04-29T20:26:38.962Z,22.15
2019-04-29T20:29:09.846Z,21.95
2019-04-29T20:31:48.653Z,23.45
2019-04-29T20:34:12.701Z,25.20
2019-04-29T20:36:43.133Z,24.23
2019-04-29T20:39:16.956Z,25.37
2019-04-29T20:41:48.734Z,21.25
2019-04-29T20:44:17.908Z,21.50
2019-04-29T20:47:13.009Z,20.05
2019-04-29T20:49:19.471Z,21.23
2019-04-29T20:51:52.977Z,20.70
2019-04-29T20:54:26.152Z,20.10
2019-04-29T20:57:02.919Z,18.95
2019-04-29T20:59:28.469Z,16.52
2019-04-29T21:02:12.039Z,17.27
2019-04-29T21:04:39.251Z,20.00
2019-04-29T21:07:07.037Z,20.68
2019-04-29T21:09:37.358Z,17.75
2019-04-29T21:12:38.225Z,17.25
2019-04-29T21:15:14.957Z,19.30
2019-04-29T21:17:43.087Z,20.15
2019-04-29T21:20:13.368Z,20.27
2019-04-29T21:22:45.454Z,22.27
2019-04-29T21:25:16.605Z,19.37
2019-04-29T21:27:48.521Z,19.70
2019-04-29T21:30:18.542Z,21.87
2019-04-29T21:32:48.503Z,18.82
2019-04-29T21:35:27.013Z,18.10
2019-04-29T21:38:23.358Z,21.12
2019-04-29T21:41:02.463Z,22.98
2019-04-29T21:43:35.442Z,19.62
2019-04-29T21:46:05.973Z,19.55
2019-04-29T21:48:37.378Z,17.52
2019-04-29T21:51:11.197Z,21.52
2019-04-29T21:53:40.668Z,23.30
2019-04-29T21:56:10.578Z,22.40
2019-04-29T21:58:40.762Z,20.08
2019-04-29T22:01:11.224Z,17.27
2019-04-29T22:03:42.786Z,20.52
2019-04-29T22:06:12.643Z,20.08
2019-04-29T22:08:42.618Z,18.52
2019-04-29T22:11:13.514Z,17.20
2019-04-29T22:13:45.285Z,20.23
2019-04-29T22:16:17.190Z,20.23
2019-04-29T22:18:52.095Z,19.73
2019-04-29T22:21:21.941Z,20.45
2019-04-29T22:23:52.372Z,16.93
2019-04-29T22:26:23.350Z,19.92
2019-04-29T22:29:01.798Z,21.35
2019-04-29T22:31:33.519Z,17.80
2019-04-29T22:33:58.437Z,18.23
2019-04-29T22:36:28.200Z,18.85
2019-04-29T22:38:58.470Z,19.42
2019-04-29T22:41:48.726Z,22.32
2019-04-29T22:44:21.888Z,19.07
2019-04-29T22:46:53.257Z,20.95
2019-04-29T22:49:27.212Z,18.37
2019-04-29T22:51:57.139Z,17.87
2019-04-29T22:54:26.694Z,18.12
2019-04-29T22:56:56.839Z,17.77
2019-04-29T22:59:27.578Z,17.40
2019-04-29T23:01:57.582Z,22.22
2019-04-29T23:04:27.668Z,23.00
2019-04-29T23:06:57.942Z,24.30
2019-04-29T23:09:28.199Z,20.37
2019-04-29T23:11:58.091Z,22.13
2019-04-29T23:14:28.400Z,20.72
2019-04-29T23:16:59.039Z,21.20
2019-04-29T23:19:29.260Z,22.02
2019-04-29T23:22:22.612Z,23.60
2019-04-29T23:24:59.441Z,24.00
2019-04-29T23:27:29.461Z,23.70
2019-04-29T23:29:59.736Z,22.40
2019-04-29T23:32:30.442Z,25.82
2019-04-29T23:35:01.715Z,22.37
2019-04-29T23:37:36.532Z,25.40
2019-04-29T23:40:10.420Z,25.00
2019-04-29T23:42:43.670Z,24.05
2019-04-29T23:45:14.556Z,25.65
2019-04-29T23:47:46.840Z,20.70
2019-04-29T23:50:18.602Z,23.52
2019-04-29T23:52:51.895Z,25.25
2019-04-29T23:55:24.973Z,25.50
2019-04-29T23:58:03.756Z,27.55
